Time;durP1;ratioP1;P1;durP2;ratioP2;P2;SDS_P1;SDS_P2;PMS_P1;PMS_P2;Temp;Humidity;BMP_temperature;BMP_pressure;BME280_temperature;BME280_humidity;BME280_pressure;Samples;Min_cycle;Max_cycle;Signal;HPM_P1;HPM_P2
2023/10/06 00:02:55;;;;;;;5.22;2.42;;;;;;;;;;6281740;28;20366;-71
2023/10/06 00:05:59;;;;;;;7.30;2.72;;;;;;;;;;6281394;28;20441;-71
2023/10/06 00:09:06;;;;;;;20.75;2.97;;;;;;;;;;6281680;28;20299;-71
2023/10/06 00:12:13;;;;;;;10.60;2.75;;;;;;;;;;6281280;28;20290;-70
2023/10/06 00:15:23;;;;;;;15.20;2.63;;;;;;;;;;6280972;28;20583;-72
2023/10/06 00:18:28;;;;;;;5.40;2.10;;;;;;;;;;6280652;28;20303;-70
2023/10/06 00:21:32;;;;;;;5.88;2.35;;;;;;;;;;6281115;28;20490;-70
2023/10/06 00:24:38;;;;;;;10.60;2.22;;;;;;;;;;6281511;28;20298;-70
2023/10/06 00:27:41;;;;;;;5.65;2.30;;;;;;;;;;6280276;28;20615;-71
2023/10/06 00:30:48;;;;;;;7.47;2.50;;;;;;;;;;6280956;28;20603;-70
2023/10/06 00:33:52;;;;;;;11.25;2.70;;;;;;;;;;6281247;28;20260;-71
2023/10/06 00:36:56;;;;;;;6.63;2.75;;;;;;;;;;6280784;28;20299;-70
2023/10/06 00:40:10;;;;;;;7.78;2.83;;;;;;;;;;6277826;28;20323;-70
2023/10/06 00:43:16;;;;;;;5.80;2.15;;;;;;;;;;6281047;28;20295;-71
2023/10/06 00:46:20;;;;;;;4.30;2.17;;;;;;;;;;6279444;28;20515;-69
2023/10/06 00:49:24;;;;;;;11.02;2.47;;;;;;;;;;6279210;28;20302;-70
2023/10/06 00:52:32;;;;;;;11.43;2.70;;;;;;;;;;6280441;28;20311;-72
2023/10/06 00:55:39;;;;;;;23.33;2.88;;;;;;;;;;6279142;28;20559;-70
2023/10/06 00:58:43;;;;;;;6.40;2.38;;;;;;;;;;6280789;28;20302;-70
2023/10/06 01:01:48;;;;;;;17.23;2.60;;;;;;;;;;6278593;28;20584;-71
2023/10/06 01:04:53;;;;;;;12.77;2.13;;;;;;;;;;6278671;28;20338;-70
2023/10/06 01:07:58;;;;;;;9.82;2.10;;;;;;;;;;6257211;28;20858;-69
2023/10/06 01:11:11;;;;;;;4.45;2.25;;;;;;;;;;6255399;28;20316;-71
2023/10/06 01:14:21;;;;;;;11.45;2.15;;;;;;;;;;6280370;28;20317;-70
2023/10/06 01:17:25;;;;;;;10.32;2.40;;;;;;;;;;6278036;28;20298;-70
2023/10/06 01:20:36;;;;;;;8.85;1.95;;;;;;;;;;6278258;28;20345;-70
2023/10/06 01:23:41;;;;;;;7.75;2.00;;;;;;;;;;6278613;28;20295;-70
2023/10/06 01:26:49;;;;;;;4.07;2.22;;;;;;;;;;6279541;28;20306;-70
2023/10/06 01:30:17;;;;;;;4.88;2.00;;;;;;;;;;6280248;28;20375;-70
2023/10/06 01:33:17;;;;;;;6.40;1.92;;;;;;;;;;6285293;28;20579;-72
2023/10/06 01:36:23;;;;;;;8.52;2.13;;;;;;;;;;6283578;28;20326;-70
2023/10/06 01:39:31;;;;;;;8.75;2.38;;;;;;;;;;6283035;28;20549;-70
2023/10/06 01:42:35;;;;;;;13.35;2.28;;;;;;;;;;6282905;28;20648;-69
2023/10/06 01:45:43;;;;;;;6.78;2.17;;;;;;;;;;6282102;28;20302;-72
2023/10/06 01:48:48;;;;;;;2.35;1.75;;;;;;;;;;6284677;28;20279;-71
2023/10/06 01:51:52;;;;;;;6.28;2.00;;;;;;;;;;6282998;28;20306;-72
2023/10/06 01:55:03;;;;;;;4.57;2.33;;;;;;;;;;6283455;28;20295;-71
2023/10/06 01:58:11;;;;;;;1.83;1.70;;;;;;;;;;6282954;28;20291;-71
2023/10/06 02:01:18;;;;;;;6.28;1.80;;;;;;;;;;6282878;28;20592;-70
2023/10/06 02:04:25;;;;;;;1.70;1.70;;;;;;;;;;6285343;28;20303;-72
2023/10/06 02:07:30;;;;;;;14.80;2.53;;;;;;;;;;6284954;28;20308;-70
2023/10/06 02:10:42;;;;;;;5.82;1.92;;;;;;;;;;6284960;28;20311;-71
2023/10/06 02:13:47;;;;;;;6.05;2.25;;;;;;;;;;6283526;28;20513;-71
2023/10/06 02:16:55;;;;;;;8.60;1.90;;;;;;;;;;6283563;28;20517;-70
2023/10/06 02:19:59;;;;;;;5.68;1.85;;;;;;;;;;6284686;28;20298;-70
2023/10/06 02:23:04;;;;;;;9.23;1.98;;;;;;;;;;6284359;28;20294;-70
2023/10/06 02:26:12;;;;;;;3.95;1.50;;;;;;;;;;6284267;28;20579;-71
2023/10/06 02:29:22;;;;;;;2.28;1.50;;;;;;;;;;6283829;28;20311;-70
2023/10/06 02:32:26;;;;;;;1.48;1.30;;;;;;;;;;6282608;28;20303;-70
2023/10/06 02:35:30;;;;;;;3.60;1.52;;;;;;;;;;6284383;28;20322;-70
2023/10/06 02:38:41;;;;;;;2.47;1.73;;;;;;;;;;6283235;28;20294;-70
2023/10/06 02:41:47;;;;;;;1.55;1.50;;;;;;;;;;6280004;28;20303;-70
2023/10/06 02:44:53;;;;;;;4.88;1.60;;;;;;;;;;6283835;28;20615;-70
2023/10/06 02:47:59;;;;;;;1.77;1.25;;;;;;;;;;6283389;28;20299;-70
2023/10/06 02:51:04;;;;;;;1.52;1.50;;;;;;;;;;6283127;28;20310;-70
2023/10/06 02:54:20;;;;;;;3.65;1.50;;;;;;;;;;6283318;28;20295;-70
2023/10/06 02:57:26;;;;;;;1.60;1.50;;;;;;;;;;6283862;28;20303;-70
2023/10/06 03:00:31;;;;;;;4.15;1.50;;;;;;;;;;6283677;28;20303;-69
2023/10/06 03:03:34;;;;;;;1.30;1.30;;;;;;;;;;6279609;28;20294;-69
2023/10/06 03:06:38;;;;;;;2.95;1.33;;;;;;;;;;6284116;28;20291;-69
2023/10/06 03:09:45;;;;;;;1.60;1.60;;;;;;;;;;6282889;28;20302;-70
2023/10/06 03:12:50;;;;;;;2.88;1.55;;;;;;;;;;6284194;28;20564;-69
2023/10/06 03:15:54;;;;;;;6.55;1.85;;;;;;;;;;6282337;28;20606;-70
2023/10/06 03:18:59;;;;;;;3.22;1.48;;;;;;;;;;6283843;28;20303;-71
2023/10/06 03:22:05;;;;;;;1.98;1.40;;;;;;;;;;6285186;28;20310;-69
2023/10/06 03:25:16;;;;;;;2.75;1.17;;;;;;;;;;6283680;28;20291;-69
2023/10/06 03:28:31;;;;;;;2.92;1.80;;;;;;;;;;6282469;28;20283;-69
2023/10/06 03:31:44;;;;;;;1.67;1.50;;;;;;;;;;6282575;28;20491;-69
2023/10/06 03:34:52;;;;;;;1.50;1.30;;;;;;;;;;6283100;28;20299;-70
2023/10/06 03:38:08;;;;;;;1.63;1.42;;;;;;;;;;6283508;28;20306;-69
2023/10/06 03:41:24;;;;;;;1.45;1.35;;;;;;;;;;6280993;28;20232;-70
2023/10/06 03:44:30;;;;;;;1.67;1.45;;;;;;;;;;6283524;28;20593;-69
2023/10/06 03:47:36;;;;;;;2.22;1.27;;;;;;;;;;6281805;28;20342;-69
2023/10/06 03:50:41;;;;;;;2.55;1.30;;;;;;;;;;6281173;28;20489;-69
2023/10/06 03:53:48;;;;;;;2.97;1.90;;;;;;;;;;6281514;28;20311;-69
2023/10/06 03:56:53;;;;;;;2.33;2.15;;;;;;;;;;6281779;28;20310;-69
2023/10/06 03:59:59;;;;;;;6.80;2.45;;;;;;;;;;6282521;28;20394;-69
2023/10/06 04:03:03;;;;;;;4.32;2.17;;;;;;;;;;6281823;28;20560;-69
2023/10/06 04:06:12;;;;;;;2.17;1.98;;;;;;;;;;6282585;28;20299;-70
2023/10/06 04:09:27;;;;;;;4.32;2.20;;;;;;;;;;6282271;28;20611;-70
2023/10/06 04:12:30;;;;;;;7.60;2.35;;;;;;;;;;6282530;28;20298;-68
2023/10/06 04:15:38;;;;;;;13.60;2.83;;;;;;;;;;6282025;28;20286;-68
2023/10/06 04:18:47;;;;;;;8.23;2.53;;;;;;;;;;6281141;28;20486;-69
2023/10/06 04:21:52;;;;;;;6.47;2.60;;;;;;;;;;6282211;28;20271;-70
2023/10/06 04:24:55;;;;;;;3.65;1.90;;;;;;;;;;6281638;28;20303;-70
2023/10/06 04:27:59;;;;;;;5.25;1.88;;;;;;;;;;6281997;28;20798;-70
2023/10/06 04:31:05;;;;;;;3.55;2.30;;;;;;;;;;6281733;28;20599;-68
2023/10/06 04:34:10;;;;;;;5.85;1.52;;;;;;;;;;6280316;28;20427;-70
2023/10/06 04:37:14;;;;;;;1.13;1.13;;;;;;;;;;6281965;28;20596;-70
2023/10/06 04:40:20;;;;;;;5.57;1.33;;;;;;;;;;6279404;28;20283;-70
2023/10/06 04:43:23;;;;;;;2.45;1.25;;;;;;;;;;6281441;28;20299;-69
2023/10/06 04:46:29;;;;;;;2.45;1.58;;;;;;;;;;6281839;28;20287;-72
2023/10/06 04:49:33;;;;;;;2.28;1.20;;;;;;;;;;6281481;28;20299;-69
2023/10/06 04:52:37;;;;;;;6.85;1.48;;;;;;;;;;6281601;28;20304;-70
2023/10/06 04:55:41;;;;;;;1.10;1.10;;;;;;;;;;6281237;28;20319;-71
2023/10/06 04:58:45;;;;;;;1.60;1.50;;;;;;;;;;6281100;28;20303;-72
2023/10/06 05:01:50;;;;;;;2.42;1.15;;;;;;;;;;6281330;28;20409;-69
2023/10/06 05:04:54;;;;;;;3.38;1.17;;;;;;;;;;6280480;28;20291;-70
2023/10/06 05:07:58;;;;;;;2.20;2.00;;;;;;;;;;6281265;28;20315;-70
2023/10/06 05:11:02;;;;;;;3.20;2.10;;;;;;;;;;6280747;28;20607;-70
2023/10/06 05:14:08;;;;;;;5.28;2.22;;;;;;;;;;6280617;28;20299;-69
2023/10/06 05:17:16;;;;;;;9.48;2.10;;;;;;;;;;6281060;28;20298;-71
2023/10/06 05:20:20;;;;;;;2.10;1.90;;;;;;;;;;6280416;28;20294;-69
2023/10/06 05:23:24;;;;;;;5.68;2.58;;;;;;;;;;6280427;28;20307;-69
2023/10/06 05:26:28;;;;;;;6.18;2.38;;;;;;;;;;6280824;28;20390;-68
2023/10/06 05:29:35;;;;;;;6.68;2.63;;;;;;;;;;6280658;28;20325;-69
2023/10/06 05:32:42;;;;;;;14.00;3.20;;;;;;;;;;6281224;28;20592;-69
2023/10/06 05:35:46;;;;;;;11.85;3.72;;;;;;;;;;6280706;28;20294;-73
2023/10/06 05:38:50;;;;;;;12.35;3.90;;;;;;;;;;6280182;28;20298;-71
2023/10/06 05:41:54;;;;;;;21.75;5.20;;;;;;;;;;6278810;28;20598;-72
2023/10/06 05:44:59;;;;;;;27.33;5.50;;;;;;;;;;6280273;28;20635;-70
2023/10/06 05:48:07;;;;;;;36.72;7.97;;;;;;;;;;6280879;28;20286;-70
2023/10/06 05:51:14;;;;;;;22.30;7.00;;;;;;;;;;6280260;28;20234;-70
2023/10/06 05:54:21;;;;;;;12.80;4.45;;;;;;;;;;6280478;28;20319;-70
2023/10/06 05:57:26;;;;;;;12.85;4.95;;;;;;;;;;6280678;28;20315;-71
2023/10/06 06:00:31;;;;;;;10.60;4.43;;;;;;;;;;6280254;28;20322;-70
2023/10/06 06:03:38;;;;;;;11.18;3.85;;;;;;;;;;6279973;28;20306;-72
2023/10/06 06:06:46;;;;;;;6.50;3.75;;;;;;;;;;6255543;28;20303;-70
2023/10/06 06:09:50;;;;;;;8.95;2.97;;;;;;;;;;6280032;28;20315;-70
2023/10/06 06:12:54;;;;;;;4.00;2.33;;;;;;;;;;6280768;28;20239;-70
2023/10/06 06:15:59;;;;;;;3.40;2.03;;;;;;;;;;6280183;28;20303;-69
2023/10/06 06:19:05;;;;;;;5.50;2.15;;;;;;;;;;6284702;28;20552;-72
2023/10/06 06:22:10;;;;;;;4.40;2.08;;;;;;;;;;6284809;28;20303;-72
2023/10/06 06:25:14;;;;;;;2.95;1.95;;;;;;;;;;6284456;28;20365;-72
2023/10/06 06:28:18;;;;;;;4.10;1.77;;;;;;;;;;6285008;28;20322;-70
2023/10/06 06:31:22;;;;;;;3.53;1.40;;;;;;;;;;6283858;28;20290;-70
2023/10/06 06:34:27;;;;;;;3.22;1.80;;;;;;;;;;6284150;28;20366;-70
2023/10/06 06:37:31;;;;;;;2.58;1.63;;;;;;;;;;6284410;28;20479;-70
2023/10/06 06:40:37;;;;;;;3.67;1.65;;;;;;;;;;6282150;28;20318;-70
2023/10/06 06:43:45;;;;;;;1.67;1.58;;;;;;;;;;6284084;28;20298;-70
2023/10/06 06:46:49;;;;;;;5.93;1.60;;;;;;;;;;6284602;28;20299;-71
2023/10/06 06:49:55;;;;;;;1.60;1.50;;;;;;;;;;6284276;28;20298;-70
2023/10/06 06:52:58;;;;;;;1.92;1.60;;;;;;;;;;6284762;28;20290;-70
2023/10/06 06:56:05;;;;;;;2.45;1.90;;;;;;;;;;6283684;28;20311;-70
2023/10/06 06:59:09;;;;;;;5.72;1.55;;;;;;;;;;6284100;28;20362;-71
2023/10/06 07:02:14;;;;;;;3.95;1.75;;;;;;;;;;6283855;28;20303;-72
2023/10/06 07:05:22;;;;;;;4.03;2.00;;;;;;;;;;6283353;28;20570;-70
2023/10/06 07:08:27;;;;;;;1.75;1.45;;;;;;;;;;6283361;28;20359;-71
2023/10/06 07:11:31;;;;;;;2.78;1.48;;;;;;;;;;6283968;28;20465;-70
2023/10/06 07:14:35;;;;;;;1.40;1.25;;;;;;;;;;6283181;28;20303;-70
2023/10/06 07:17:39;;;;;;;1.58;1.42;;;;;;;;;;6283653;28;20639;-70
2023/10/06 07:20:45;;;;;;;3.50;1.70;;;;;;;;;;6283368;28;20299;-70
2023/10/06 07:23:51;;;;;;;1.50;1.35;;;;;;;;;;6283114;28;20394;-72
2023/10/06 07:26:56;;;;;;;3.28;1.70;;;;;;;;;;6283283;28;20304;-70
2023/10/06 07:30:03;;;;;;;6.65;1.52;;;;;;;;;;6282105;28;20356;-71
2023/10/06 07:33:07;;;;;;;1.45;1.40;;;;;;;;;;6283223;28;20315;-72
2023/10/06 07:36:17;;;;;;;5.15;1.95;;;;;;;;;;6283023;28;20299;-69
2023/10/06 07:39:22;;;;;;;2.22;1.50;;;;;;;;;;6280880;28;20408;-71
2023/10/06 07:42:26;;;;;;;3.05;1.45;;;;;;;;;;6283141;28;20307;-71
2023/10/06 07:45:31;;;;;;;1.80;1.70;;;;;;;;;;6282755;28;20303;-72
2023/10/06 07:48:37;;;;;;;2.60;2.15;;;;;;;;;;6282573;28;20300;-70
2023/10/06 07:51:45;;;;;;;1.48;1.38;;;;;;;;;;6282256;28;20271;-70
2023/10/06 07:54:49;;;;;;;1.50;1.40;;;;;;;;;;6282553;28;20307;-71
2023/10/06 07:57:53;;;;;;;1.63;1.55;;;;;;;;;;6283299;28;20326;-71
2023/10/06 08:00:57;;;;;;;1.38;1.25;;;;;;;;;;6282464;28;20290;-70
2023/10/06 08:04:00;;;;;;;3.03;1.73;;;;;;;;;;6282417;28;20298;-73
2023/10/06 08:07:06;;;;;;;1.70;1.60;;;;;;;;;;6282780;28;20295;-71
2023/10/06 08:10:13;;;;;;;1.58;1.38;;;;;;;;;;6283011;28;20299;-72
2023/10/06 08:13:18;;;;;;;1.63;1.40;;;;;;;;;;6284383;28;20506;-71
2023/10/06 08:16:21;;;;;;;2.95;1.27;;;;;;;;;;6263455;28;20294;-70
2023/10/06 08:19:26;;;;;;;1.40;1.25;;;;;;;;;;6281943;28;20303;-72
2023/10/06 08:22:33;;;;;;;1.35;1.25;;;;;;;;;;6282173;28;20335;-71
2023/10/06 08:25:37;;;;;;;3.25;1.30;;;;;;;;;;6281998;28;20236;-71
2023/10/06 08:29:01;;;;;;;3.47;1.40;;;;;;;;;;6281945;28;20291;-71
2023/10/06 08:32:06;;;;;;;3.10;1.40;;;;;;;;;;6282193;28;20295;-70
2023/10/06 08:35:13;;;;;;;2.38;1.40;;;;;;;;;;6282013;28;20298;-72
2023/10/06 08:38:18;;;;;;;2.05;1.30;;;;;;;;;;6281224;28;20303;-70
2023/10/06 08:41:26;;;;;;;1.60;1.23;;;;;;;;;;6279007;28;20291;-70
2023/10/06 08:44:30;;;;;;;1.35;1.25;;;;;;;;;;6281401;28;20282;-68
2023/10/06 08:47:36;;;;;;;1.25;1.25;;;;;;;;;;6281860;28;20310;-69
2023/10/06 08:51:03;;;;;;;6.55;1.55;;;;;;;;;;6281340;28;20287;-68
2023/10/06 08:54:13;;;;;;;4.07;1.73;;;;;;;;;;6280357;28;20479;-70
2023/10/06 08:57:17;;;;;;;1.95;1.30;;;;;;;;;;6281535;28;20311;-70
2023/10/06 09:00:24;;;;;;;1.27;1.27;;;;;;;;;;6281245;28;20330;-70
2023/10/06 09:03:29;;;;;;;2.40;1.30;;;;;;;;;;6280888;28;20251;-68
2023/10/06 09:06:33;;;;;;;2.15;1.40;;;;;;;;;;6281250;28;20341;-71
2023/10/06 09:09:38;;;;;;;3.70;1.30;;;;;;;;;;6280920;28;20290;-71
2023/10/06 09:12:43;;;;;;;1.20;1.20;;;;;;;;;;6231245;28;20269;-69
2023/10/06 09:15:57;;;;;;;1.23;1.23;;;;;;;;;;6231331;28;20372;-70
2023/10/06 09:19:01;;;;;;;1.42;1.30;;;;;;;;;;6231399;28;20403;-72
2023/10/06 09:22:06;;;;;;;1.73;1.35;;;;;;;;;;6231917;28;20296;-72
2023/10/06 09:25:12;;;;;;;3.25;1.17;;;;;;;;;;6231405;28;20232;-70
2023/10/06 09:28:17;;;;;;;3.03;1.35;;;;;;;;;;6232003;28;20331;-70
2023/10/06 09:31:35;;;;;;;1.75;1.33;;;;;;;;;;6255338;28;20315;-72
2023/10/06 09:34:40;;;;;;;1.38;1.20;;;;;;;;;;6255779;28;20292;-71
2023/10/06 09:37:44;;;;;;;1.20;1.10;;;;;;;;;;6256118;28;20585;-71
2023/10/06 09:40:49;;;;;;;1.30;1.20;;;;;;;;;;6268340;28;20378;-71
2023/10/06 09:43:54;;;;;;;1.00;1.00;;;;;;;;;;6280671;28;20336;-70
2023/10/06 09:47:00;;;;;;;1.38;1.35;;;;;;;;;;6280937;28;20306;-72
2023/10/06 09:50:06;;;;;;;1.10;1.00;;;;;;;;;;6281105;28;20298;-71
2023/10/06 09:53:12;;;;;;;4.90;1.42;;;;;;;;;;6285788;28;20295;-72
2023/10/06 09:56:18;;;;;;;3.53;1.27;;;;;;;;;;6285392;28;20323;-70
2023/10/06 09:59:23;;;;;;;1.15;1.15;;;;;;;;;;6285037;28;20302;-73
2023/10/06 10:02:28;;;;;;;1.20;1.20;;;;;;;;;;6285940;28;20298;-71
2023/10/06 10:05:32;;;;;;;1.27;1.20;;;;;;;;;;6285086;28;20302;-70
2023/10/06 10:08:40;;;;;;;4.28;1.30;;;;;;;;;;6284739;28;20331;-70
2023/10/06 10:11:52;;;;;;;1.55;1.42;;;;;;;;;;6285327;28;20314;-70
2023/10/06 10:15:11;;;;;;;5.53;1.60;;;;;;;;;;6283690;28;20295;-71
2023/10/06 10:18:24;;;;;;;1.52;1.38;;;;;;;;;;6285470;28;20299;-70
2023/10/06 10:21:28;;;;;;;2.63;1.10;;;;;;;;;;6284126;28;20499;-70
2023/10/06 10:24:36;;;;;;;2.28;1.40;;;;;;;;;;6284269;28;20298;-71
2023/10/06 10:27:44;;;;;;;2.15;1.23;;;;;;;;;;6284087;28;20283;-70
2023/10/06 10:30:50;;;;;;;2.67;1.40;;;;;;;;;;6284382;28;20303;-70
2023/10/06 10:33:55;;;;;;;1.40;1.20;;;;;;;;;;6284383;28;20322;-71
2023/10/06 10:37:16;;;;;;;1.20;1.17;;;;;;;;;;6284746;28;20299;-71
2023/10/06 10:40:21;;;;;;;1.33;1.25;;;;;;;;;;6277221;28;20307;-71
2023/10/06 10:43:27;;;;;;;1.85;1.75;;;;;;;;;;6284230;28;20319;-71
2023/10/06 10:46:31;;;;;;;2.63;1.25;;;;;;;;;;6284460;28;20303;-71
2023/10/06 10:49:35;;;;;;;1.30;1.20;;;;;;;;;;6283940;28;20298;-71
2023/10/06 10:52:40;;;;;;;1.25;1.23;;;;;;;;;;6284627;28;20303;-70
2023/10/06 10:55:44;;;;;;;1.85;1.63;;;;;;;;;;6283617;28;20623;-71
2023/10/06 10:58:56;;;;;;;1.65;1.30;;;;;;;;;;6284053;28;20306;-71
2023/10/06 11:02:08;;;;;;;2.72;1.83;;;;;;;;;;6283274;28;20541;-71
2023/10/06 11:05:12;;;;;;;1.25;1.17;;;;;;;;;;6283394;28;20514;-71
2023/10/06 11:08:16;;;;;;;2.58;1.25;;;;;;;;;;6283828;28;20309;-73
2023/10/06 11:11:20;;;;;;;2.00;1.40;;;;;;;;;;6283162;28;20627;-71
2023/10/06 11:14:27;;;;;;;2.65;1.10;;;;;;;;;;6283448;28;20295;-73
2023/10/06 11:17:32;;;;;;;1.50;1.38;;;;;;;;;;6283825;28;20299;-72
2023/10/06 11:20:38;;;;;;;1.50;1.50;;;;;;;;;;6283357;28;20325;-69
2023/10/06 11:23:43;;;;;;;2.53;1.52;;;;;;;;;;6283085;28;20591;-70
2023/10/06 11:26:47;;;;;;;1.48;1.48;;;;;;;;;;6283247;28;20303;-70
2023/10/06 11:29:57;;;;;;;1.45;1.35;;;;;;;;;;6283065;28;20307;-69
2023/10/06 11:33:02;;;;;;;1.60;1.50;;;;;;;;;;6282443;28;20295;-72
2023/10/06 11:36:06;;;;;;;1.92;1.50;;;;;;;;;;6283439;28;20576;-71
2023/10/06 11:39:11;;;;;;;2.22;1.33;;;;;;;;;;6281029;28;20338;-71
2023/10/06 11:42:29;;;;;;;1.83;1.60;;;;;;;;;;6283342;28;20294;-68
2023/10/06 11:45:36;;;;;;;1.95;1.40;;;;;;;;;;6282738;28;20303;-69
2023/10/06 11:48:40;;;;;;;2.03;1.52;;;;;;;;;;6281683;28;20302;-71
2023/10/06 11:51:44;;;;;;;3.28;1.30;;;;;;;;;;6282731;28;20263;-72
2023/10/06 11:54:49;;;;;;;3.67;1.50;;;;;;;;;;6282248;28;20311;-71
2023/10/06 11:57:54;;;;;;;1.95;1.60;;;;;;;;;;6282420;28;20283;-72
2023/10/06 12:00:59;;;;;;;2.45;1.42;;;;;;;;;;6282301;28;20298;-69
2023/10/06 12:04:06;;;;;;;4.10;1.17;;;;;;;;;;6282144;28;20615;-70
2023/10/06 12:07:21;;;;;;;1.95;1.20;;;;;;;;;;6282569;28;20291;-70
2023/10/06 12:10:25;;;;;;;2.35;1.80;;;;;;;;;;6281741;28;20307;-69
2023/10/06 12:13:29;;;;;;;1.98;1.50;;;;;;;;;;6281341;28;20319;-70
2023/10/06 12:16:36;;;;;;;3.38;1.42;;;;;;;;;;6281776;28;20298;-72
2023/10/06 12:19:42;;;;;;;4.00;1.30;;;;;;;;;;6281819;28;20327;-70
2023/10/06 12:22:47;;;;;;;3.30;1.20;;;;;;;;;;6282270;28;20487;-70
2023/10/06 12:25:50;;;;;;;1.45;1.30;;;;;;;;;;6281762;28;20303;-70
2023/10/06 12:28:54;;;;;;;1.35;1.25;;;;;;;;;;6281811;28;20374;-71
2023/10/06 12:32:00;;;;;;;2.97;1.20;;;;;;;;;;6281833;28;20298;-70
2023/10/06 12:35:08;;;;;;;2.17;1.30;;;;;;;;;;6281593;28;20295;-70
2023/10/06 12:38:14;;;;;;;2.80;1.40;;;;;;;;;;6282159;28;20590;-70
2023/10/06 12:41:19;;;;;;;2.92;1.15;;;;;;;;;;6279532;28;20571;-70
2023/10/06 12:44:27;;;;;;;2.25;1.38;;;;;;;;;;6281340;28;20314;-71
2023/10/06 12:47:32;;;;;;;1.55;1.30;;;;;;;;;;6281794;28;20352;-71
2023/10/06 12:50:40;;;;;;;1.25;1.13;;;;;;;;;;6281335;28;20295;-70
2023/10/06 12:53:45;;;;;;;1.38;1.25;;;;;;;;;;6281357;28;20295;-69
2023/10/06 12:56:49;;;;;;;1.30;1.25;;;;;;;;;;6281545;28;20295;-70
2023/10/06 12:59:53;;;;;;;1.27;1.02;;;;;;;;;;6281341;28;20295;-70
2023/10/06 13:02:58;;;;;;;1.95;1.10;;;;;;;;;;6281436;28;20291;-70
2023/10/06 13:06:03;;;;;;;0.90;0.90;;;;;;;;;;6273958;28;20303;-70
2023/10/06 13:09:08;;;;;;;0.98;0.98;;;;;;;;;;6237015;28;20557;-71
2023/10/06 13:12:12;;;;;;;1.73;1.40;;;;;;;;;;6275322;28;20307;-72
2023/10/06 13:15:18;;;;;;;1.23;1.00;;;;;;;;;;6280567;28;20294;-71
2023/10/06 13:18:24;;;;;;;1.05;1.00;;;;;;;;;;6280377;28;20299;-71
2023/10/06 13:21:28;;;;;;;0.80;0.80;;;;;;;;;;6281066;28;20291;-69
2023/10/06 13:24:34;;;;;;;1.17;1.00;;;;;;;;;;6280709;28;20302;-69
2023/10/06 13:27:39;;;;;;;0.80;0.80;;;;;;;;;;6285659;28;20623;-69
2023/10/06 13:30:44;;;;;;;1.42;1.30;;;;;;;;;;6285091;28;20322;-69
2023/10/06 13:33:51;;;;;;;1.65;0.90;;;;;;;;;;6286153;28;20295;-69
2023/10/06 13:36:55;;;;;;;0.88;0.88;;;;;;;;;;6286573;28;20266;-69
2023/10/06 13:39:59;;;;;;;1.88;0.90;;;;;;;;;;6283786;28;20611;-69
2023/10/06 13:43:06;;;;;;;0.95;0.90;;;;;;;;;;6285864;28;20295;-69
2023/10/06 13:46:12;;;;;;;1.63;1.00;;;;;;;;;;6285659;28;20450;-70
2023/10/06 13:49:18;;;;;;;1.05;1.05;;;;;;;;;;6285241;28;20291;-70
2023/10/06 13:52:22;;;;;;;0.90;0.90;;;;;;;;;;6284599;28;20314;-71
2023/10/06 13:55:26;;;;;;;0.77;0.77;;;;;;;;;;6285053;28;20314;-70
2023/10/06 13:58:30;;;;;;;0.90;0.90;;;;;;;;;;6285524;28;20294;-70
2023/10/06 14:01:34;;;;;;;0.70;0.70;;;;;;;;;;6285632;28;20298;-69
2023/10/06 14:04:40;;;;;;;5.47;1.10;;;;;;;;;;6285061;28;20298;-70
2023/10/06 14:07:45;;;;;;;1.00;1.00;;;;;;;;;;6285449;28;20620;-69
2023/10/06 14:10:49;;;;;;;2.03;1.00;;;;;;;;;;6284797;28;20287;-70
2023/10/06 14:13:56;;;;;;;0.95;0.95;;;;;;;;;;6284710;28;20299;-71
2023/10/06 14:17:02;;;;;;;1.00;1.00;;;;;;;;;;6285131;28;20612;-70
2023/10/06 14:20:23;;;;;;;1.50;1.20;;;;;;;;;;6284387;28;20306;-70
2023/10/06 14:23:30;;;;;;;1.02;1.02;;;;;;;;;;6284609;28;20296;-70
2023/10/06 14:26:35;;;;;;;1.25;1.20;;;;;;;;;;6284848;28;20294;-69
2023/10/06 14:29:39;;;;;;;2.08;1.27;;;;;;;;;;6284624;28;20303;-70
2023/10/06 14:32:54;;;;;;;2.17;0.90;;;;;;;;;;6284980;28;20379;-70
2023/10/06 14:36:24;;;;;;;4.20;1.20;;;;;;;;;;6284368;28;20295;-70
2023/10/06 14:46:10;;;;;;;2.75;1.42;;;;;;;;;;6284125;28;20307;-69
2023/10/06 14:49:14;;;;;;;1.20;1.20;;;;;;;;;;6283975;28;20299;-69
2023/10/06 14:52:19;;;;;;;1.45;1.40;;;;;;;;;;6284372;28;20295;-70
2023/10/06 14:55:23;;;;;;;4.88;1.38;;;;;;;;;;6284028;28;20311;-70
2023/10/06 14:58:27;;;;;;;1.75;1.48;;;;;;;;;;6259118;28;20303;-69
2023/10/06 15:01:31;;;;;;;2.17;1.58;;;;;;;;;;6259544;28;20320;-69
2023/10/06 15:04:35;;;;;;;2.60;1.60;;;;;;;;;;6257771;28;20529;-68
2023/10/06 15:07:41;;;;;;;1.60;1.48;;;;;;;;;;6259290;28;20319;-69
2023/10/06 15:10:47;;;;;;;3.47;1.55;;;;;;;;;;6258717;28;20315;-70
2023/10/06 15:13:54;;;;;;;1.45;1.27;;;;;;;;;;6258749;28;20295;-69
2023/10/06 15:16:59;;;;;;;3.03;1.50;;;;;;;;;;6259190;28;20311;-69
2023/10/06 15:20:04;;;;;;;1.30;1.30;;;;;;;;;;6258828;28;20292;-71
2023/10/06 15:23:12;;;;;;;1.67;1.52;;;;;;;;;;6244377;28;20296;-73
2023/10/06 15:26:16;;;;;;;2.90;1.45;;;;;;;;;;6221840;28;20304;-69
2023/10/06 15:29:20;;;;;;;2.75;1.55;;;;;;;;;;6233838;28;20307;-69
2023/10/06 15:32:26;;;;;;;2.05;1.30;;;;;;;;;;6234493;28;20383;-69
2023/10/06 15:35:35;;;;;;;2.45;1.40;;;;;;;;;;6233954;28;20295;-69
2023/10/06 15:38:42;;;;;;;1.27;1.27;;;;;;;;;;6233612;28;20295;-69
2023/10/06 15:41:46;;;;;;;1.33;1.23;;;;;;;;;;6254646;28;20303;-69
2023/10/06 15:44:51;;;;;;;2.00;1.10;;;;;;;;;;6258423;28;20303;-69
2023/10/06 15:47:55;;;;;;;2.42;1.30;;;;;;;;;;6258185;28;20299;-71
2023/10/06 15:50:59;;;;;;;1.83;1.58;;;;;;;;;;6257871;28;20299;-70
2023/10/06 15:54:05;;;;;;;1.20;1.20;;;;;;;;;;6257521;28;20299;-69
2023/10/06 15:57:09;;;;;;;3.08;1.40;;;;;;;;;;6272506;28;20311;-69
2023/10/06 16:00:14;;;;;;;1.20;1.20;;;;;;;;;;6282136;28;20298;-71
2023/10/06 16:03:19;;;;;;;1.20;1.08;;;;;;;;;;6282775;28;20295;-70
2023/10/06 16:06:25;;;;;;;1.92;1.40;;;;;;;;;;6282062;28;20314;-69
2023/10/06 16:09:31;;;;;;;1.40;1.30;;;;;;;;;;6282074;28;20611;-72
2023/10/06 16:12:34;;;;;;;1.42;1.30;;;;;;;;;;6282840;28;20295;-71
2023/10/06 16:15:42;;;;;;;2.47;1.40;;;;;;;;;;6282431;28;20291;-72
2023/10/06 16:19:05;;;;;;;1.50;1.50;;;;;;;;;;6281598;28;20412;-71
2023/10/06 16:22:10;;;;;;;2.38;1.30;;;;;;;;;;6282362;28;20314;-71
2023/10/06 16:25:15;;;;;;;2.60;1.60;;;;;;;;;;6282458;28;20299;-71
2023/10/06 16:28:19;;;;;;;3.55;1.70;;;;;;;;;;6282231;28;20541;-72
2023/10/06 16:31:23;;;;;;;3.08;1.90;;;;;;;;;;6261438;28;20322;-71
2023/10/06 16:34:26;;;;;;;2.13;1.90;;;;;;;;;;6281670;28;20299;-75
2023/10/06 16:37:31;;;;;;;1.80;1.67;;;;;;;;;;6281826;28;20378;-71
2023/10/06 16:40:36;;;;;;;1.48;1.42;;;;;;;;;;6279518;28;20299;-73
2023/10/06 16:43:40;;;;;;;1.27;1.27;;;;;;;;;;6281468;28;20579;-71
2023/10/06 16:46:44;;;;;;;1.55;1.45;;;;;;;;;;6281722;28;20480;-71
2023/10/06 16:49:49;;;;;;;1.80;1.70;;;;;;;;;;6281450;28;20310;-71
2023/10/06 16:52:53;;;;;;;1.65;1.55;;;;;;;;;;6281449;28;20371;-69
2023/10/06 16:55:59;;;;;;;3.13;1.33;;;;;;;;;;6280717;28;20298;-72
2023/10/06 16:59:03;;;;;;;1.42;1.42;;;;;;;;;;6280720;28;20375;-71
2023/10/06 17:02:07;;;;;;;2.67;1.60;;;;;;;;;;6280845;28;20499;-73
2023/10/06 17:05:13;;;;;;;1.65;1.55;;;;;;;;;;6281319;28;20314;-72
2023/10/06 17:08:17;;;;;;;3.08;1.52;;;;;;;;;;6281265;28;20303;-71
2023/10/06 17:11:23;;;;;;;1.50;1.50;;;;;;;;;;6280724;28;20606;-72
2023/10/06 17:14:27;;;;;;;3.42;1.60;;;;;;;;;;6281044;28;20299;-71
2023/10/06 17:17:32;;;;;;;2.25;1.70;;;;;;;;;;6281581;28;20476;-71
2023/10/06 17:20:37;;;;;;;2.53;1.85;;;;;;;;;;6281164;28;20529;-70
2023/10/06 17:23:42;;;;;;;1.95;1.90;;;;;;;;;;6280715;28;20491;-70
2023/10/06 17:26:48;;;;;;;2.70;1.63;;;;;;;;;;6281263;28;20290;-69
2023/10/06 17:29:55;;;;;;;2.05;1.95;;;;;;;;;;6280682;28;20296;-71
2023/10/06 17:32:59;;;;;;;2.00;1.70;;;;;;;;;;6281276;28;20295;-70
2023/10/06 17:36:03;;;;;;;2.72;2.10;;;;;;;;;;6280160;28;20388;-68
2023/10/06 17:39:07;;;;;;;1.40;1.40;;;;;;;;;;6278747;28;20295;-69
2023/10/06 17:42:13;;;;;;;2.10;1.65;;;;;;;;;;6281116;28;20286;-69
2023/10/06 17:45:17;;;;;;;4.32;2.00;;;;;;;;;;6280600;28;20302;-72
2023/10/06 17:48:21;;;;;;;2.08;1.98;;;;;;;;;;6280030;28;20323;-70
2023/10/06 17:51:25;;;;;;;2.88;1.90;;;;;;;;;;6280770;28;20322;-70
2023/10/06 17:54:29;;;;;;;1.52;1.50;;;;;;;;;;6280419;28;20294;-69
2023/10/06 17:57:34;;;;;;;1.70;1.70;;;;;;;;;;6280561;28;20319;-68
2023/10/06 18:00:40;;;;;;;1.80;1.60;;;;;;;;;;6280400;28;20303;-69
2023/10/06 18:03:46;;;;;;;1.90;1.70;;;;;;;;;;6280249;28;20306;-70
2023/10/06 18:06:51;;;;;;;1.52;1.52;;;;;;;;;;6278522;28;20520;-69
2023/10/06 18:09:55;;;;;;;1.50;1.40;;;;;;;;;;6279944;28;20287;-68
2023/10/06 18:13:00;;;;;;;1.40;1.40;;;;;;;;;;6284228;28;20251;-69
2023/10/06 18:16:05;;;;;;;1.30;1.30;;;;;;;;;;6284779;28;20390;-73
2023/10/06 18:19:10;;;;;;;1.40;1.30;;;;;;;;;;6284870;28;20286;-73
2023/10/06 18:22:14;;;;;;;1.52;1.33;;;;;;;;;;6285409;28;20313;-71
2023/10/06 18:25:18;;;;;;;2.15;1.63;;;;;;;;;;6284716;28;20302;-71
2023/10/06 18:28:23;;;;;;;1.50;1.50;;;;;;;;;;6284319;28;20298;-72
2023/10/06 18:31:27;;;;;;;2.15;1.65;;;;;;;;;;6284847;28;20318;-71
2023/10/06 18:34:32;;;;;;;1.60;1.40;;;;;;;;;;6284287;28;20295;-69
2023/10/06 18:37:37;;;;;;;1.27;1.27;;;;;;;;;;6284868;28;20326;-71
2023/10/06 18:40:50;;;;;;;1.23;1.20;;;;;;;;;;6282710;28;20291;-69
2023/10/06 18:43:56;;;;;;;1.42;1.20;;;;;;;;;;6284446;28;20386;-68